createdAt,value
2022-08-27T00:00:50.708Z,100329.69
2022-08-27T00:03:18.213Z,100322.34
2022-08-27T00:05:45.016Z,100328.53
2022-08-27T00:08:13.149Z,100330.03
2022-08-27T00:10:41.077Z,100327.03
2022-08-27T00:13:08.314Z,100327.03
2022-08-27T00:15:35.832Z,100327.28
2022-08-27T00:18:02.371Z,100322.38
2022-08-27T00:20:28.985Z,100320.53
2022-08-27T00:22:55.953Z,100321.13
2022-08-27T00:25:23.424Z,100322.22
2022-08-27T00:27:50.509Z,100313.88
2022-08-27T00:30:20.034Z,100316.88
2022-08-27T00:32:47.012Z,100312.56
2022-08-27T00:35:15.979Z,100317.66
2022-08-27T00:37:43.770Z,100317.38
2022-08-27T00:40:14.564Z,100328.38
2022-08-27T00:42:42.584Z,100311.66
2022-08-27T00:45:10.199Z,100319.91
2022-08-27T00:47:43.454Z,100311.56
2022-08-27T00:50:20.780Z,100303.31
2022-08-27T00:52:54.485Z,100303.56
2022-08-27T00:55:25.925Z,100306.16
2022-08-27T00:58:29.798Z,100301.13
2022-08-27T01:00:57.838Z,100299.47
2022-08-27T01:03:26.504Z,100296.72
2022-08-27T01:05:56.687Z,100293.47
2022-08-27T01:08:26.344Z,100295.75
2022-08-27T01:10:55.019Z,100299.69
2022-08-27T01:13:54.478Z,100296.22
2022-08-27T01:16:17.268Z,100295.63
2022-08-27T01:18:44.664Z,100288.97
2022-08-27T01:21:11.468Z,100301.06
2022-08-27T01:23:44.565Z,100304.88
2022-08-27T01:26:14.558Z,100296.72
2022-08-27T01:28:42.316Z,100296.81
2022-08-27T01:31:11.685Z,100295.75
2022-08-27T01:33:39.054Z,100300.66
2022-08-27T01:36:06.828Z,100306.16
2022-08-27T01:38:33.703Z,100310.88
2022-08-27T01:41:01.860Z,100302.31
2022-08-27T01:43:31.267Z,100307.00
2022-08-27T01:45:58.211Z,100306.44
2022-08-27T01:48:24.844Z,100310.50
2022-08-27T01:50:51.814Z,100309.41
2022-08-27T01:53:22.306Z,100312.63
2022-08-27T01:55:50.428Z,100312.06
2022-08-27T01:58:18.632Z,100315.16
2022-08-27T02:00:48.677Z,100317.16
2022-08-27T02:03:20.935Z,100312.03
2022-08-27T02:05:48.469Z,100310.69
2022-08-27T02:08:17.871Z,100318.72
2022-08-27T02:10:46.340Z,100327.16
2022-08-27T02:13:13.344Z,100319.53
2022-08-27T02:15:41.545Z,100314.28
2022-08-27T02:18:09.755Z,100312.97
2022-08-27T02:20:37.141Z,100321.88
2022-08-27T02:23:04.820Z,100314.72
2022-08-27T02:25:31.688Z,100321.75
2022-08-27T02:28:02.434Z,100319.84
2022-08-27T02:30:32.001Z,100325.06
2022-08-27T02:33:00.950Z,100326.75
2022-08-27T02:35:28.762Z,100321.28
2022-08-27T02:37:55.605Z,100332.25
2022-08-27T02:40:23.924Z,100327.00
2022-08-27T02:42:51.146Z,100326.06
2022-08-27T02:45:18.261Z,100317.03
2022-08-27T02:47:45.009Z,100316.81
2022-08-27T02:50:13.502Z,100324.25
2022-08-27T02:52:40.563Z,100319.81
2022-08-27T02:55:07.508Z,100322.94
2022-08-27T02:57:36.390Z,100323.91
2022-08-27T03:00:07.040Z,100313.19
2022-08-27T03:02:33.764Z,100320.31
2022-08-27T03:05:00.498Z,100323.06
2022-08-27T03:07:27.223Z,100315.81
2022-08-27T03:09:53.820Z,100317.72
2022-08-27T03:12:20.437Z,100322.59
2022-08-27T03:14:49.673Z,100316.47
2022-08-27T03:17:34.850Z,100312.75
2022-08-27T03:20:02.252Z,100318.72
2022-08-27T03:22:29.213Z,100324.28
2022-08-27T03:24:56.382Z,100323.75
2022-08-27T03:27:25.767Z,100325.19
2022-08-27T03:29:52.368Z,100316.34
2022-08-27T03:32:18.937Z,100323.53
2022-08-27T03:34:45.573Z,100310.06
2022-08-27T03:37:12.135Z,100320.53
2022-08-27T03:39:38.701Z,100315.56
2022-08-27T03:42:05.676Z,100314.97
2022-08-27T03:44:32.982Z,100311.25
2022-08-27T03:47:00.885Z,100305.06
2022-08-27T03:49:27.956Z,100303.75
2022-08-27T03:51:54.619Z,100299.59
2022-08-27T03:54:21.395Z,100295.97
2022-08-27T03:56:48.245Z,100303.16
2022-08-27T03:59:15.783Z,100298.72
2022-08-27T04:01:43.257Z,100293.22
2022-08-27T04:04:10.330Z,100291.19
2022-08-27T04:06:37.083Z,100290.25
2022-08-27T04:09:04.606Z,100288.47
2022-08-27T04:11:34.461Z,100294.56
2022-08-27T04:14:04.474Z,100291.09
2022-08-27T04:16:48.173Z,100287.75
2022-08-27T04:19:17.384Z,100287.63
2022-08-27T04:21:44.012Z,100285.72
2022-08-27T04:24:11.941Z,100288.00
2022-08-27T04:26:42.558Z,100296.94
2022-08-27T04:29:09.160Z,100295.28
2022-08-27T04:31:35.741Z,100302.66
2022-08-27T04:34:02.573Z,100301.81
2022-08-27T04:36:29.171Z,100304.09
2022-08-27T04:38:55.728Z,100295.63
2022-08-27T04:41:23.220Z,100301.44
2022-08-27T04:43:53.438Z,100299.34
2022-08-27T04:46:26.038Z,100305.06
2022-08-27T04:48:53.376Z,100301.34
2022-08-27T04:51:20.914Z,100313.63
2022-08-27T04:53:49.862Z,100313.41
2022-08-27T04:56:19.971Z,100319.31
2022-08-27T04:58:46.554Z,100317.03
2022-08-27T05:01:24.174Z,100319.03
2022-08-27T05:03:51.598Z,100315.41
2022-08-27T05:06:19.021Z,100319.78
2022-08-27T05:08:46.085Z,100307.81
2022-08-27T05:11:15.576Z,100314.94
2022-08-27T05:13:43.447Z,100309.28
2022-08-27T05:16:18.630Z,100316.56
2022-08-27T05:18:48.081Z,100303.88
2022-08-27T05:21:24.380Z,100299.53
2022-08-27T05:23:52.426Z,100306.81
2022-08-27T05:26:19.373Z,100304.22
2022-08-27T05:28:46.292Z,100311.06
2022-08-27T05:31:15.044Z,100311.53
2022-08-27T05:33:43.274Z,100317.91
2022-08-27T05:36:20.578Z,100326.06
2022-08-27T05:38:51.557Z,100323.50
2022-08-27T05:41:25.489Z,100325.56
2022-08-27T05:44:01.412Z,100333.94
2022-08-27T05:46:29.391Z,100330.66
2022-08-27T05:49:02.042Z,100334.41
2022-08-27T05:51:33.397Z,100330.31
2022-08-27T05:54:08.452Z,100326.56
2022-08-27T05:56:37.537Z,100331.63
2022-08-27T05:59:23.285Z,100340.25
2022-08-27T06:01:52.545Z,100342.78
2022-08-27T06:04:20.621Z,100336.72
2022-08-27T06:06:47.619Z,100337.81
2022-08-27T06:09:19.070Z,100341.44
2022-08-27T06:11:46.468Z,100333.94
2022-08-27T06:14:13.177Z,100341.38
2022-08-27T06:16:40.616Z,100344.31
2022-08-27T06:19:08.974Z,100343.84
2022-08-27T06:21:36.980Z,100358.03
2022-08-27T06:24:03.791Z,100354.16
2022-08-27T06:26:30.492Z,100357.22
2022-08-27T06:29:01.614Z,100356.50
2022-08-27T06:31:28.275Z,100368.91
2022-08-27T06:34:03.108Z,100365.94
2022-08-27T06:36:36.550Z,100369.28
2022-08-27T06:39:03.995Z,100377.00
2022-08-27T06:41:31.725Z,100376.06
2022-08-27T06:43:58.481Z,100382.63
2022-08-27T06:46:27.942Z,100388.84
2022-08-27T06:48:56.995Z,100382.25
2022-08-27T06:51:27.288Z,100384.50
2022-08-27T06:53:56.682Z,100387.59
2022-08-27T06:56:23.436Z,100387.63
2022-08-27T06:58:55.496Z,100379.34
2022-08-27T07:01:28.184Z,100380.16
2022-08-27T07:03:59.547Z,100366.84
2022-08-27T07:06:29.095Z,100370.91
2022-08-27T07:08:57.042Z,100374.06
2022-08-27T07:11:24.377Z,100362.88
2022-08-27T07:13:51.454Z,100360.97
2022-08-27T07:16:23.168Z,100361.84
2022-08-27T07:18:55.709Z,100366.19
2022-08-27T07:21:23.338Z,100376.13
2022-08-27T07:23:52.564Z,100380.47
2022-08-27T07:26:21.922Z,100379.50
2022-08-27T07:28:50.345Z,100383.06
2022-08-27T07:31:19.598Z,100378.81
2022-08-27T07:33:52.393Z,100387.81
2022-08-27T07:36:21.336Z,100384.09
2022-08-27T07:39:01.013Z,100389.91
2022-08-27T07:41:31.163Z,100388.28
2022-08-27T07:44:20.585Z,100380.75
2022-08-27T07:46:49.344Z,100385.16
2022-08-27T07:49:20.262Z,100379.31
2022-08-27T07:51:47.163Z,100373.84
2022-08-27T07:54:14.992Z,100372.50
2022-08-27T07:56:41.755Z,100365.50
2022-08-27T07:59:09.005Z,100367.41
2022-08-27T08:01:36.867Z,100380.66
2022-08-27T08:04:03.846Z,100374.59
2022-08-27T08:06:30.642Z,100386.66
2022-08-27T08:08:59.977Z,100387.69
2022-08-27T08:11:26.764Z,100392.06
2022-08-27T08:13:53.341Z,100390.94
2022-08-27T08:16:20.900Z,100391.06
2022-08-27T08:18:47.536Z,100409.03
2022-08-27T08:21:15.028Z,100389.75
2022-08-27T08:23:42.988Z,100384.81
2022-08-27T08:26:11.205Z,100389.56
2022-08-27T08:28:38.557Z,100400.03
2022-08-27T08:31:06.108Z,100404.63
2022-08-27T08:33:33.854Z,100420.59
2022-08-27T08:36:09.863Z,100414.41
2022-08-27T08:38:37.828Z,100414.78
2022-08-27T08:41:06.500Z,100412.28
2022-08-27T08:43:35.813Z,100410.78
2022-08-27T08:46:18.676Z,100404.25
2022-08-27T08:48:51.252Z,100409.84
2022-08-27T08:51:29.862Z,100408.28
2022-08-27T08:54:03.543Z,100411.91
2022-08-27T08:56:59.727Z,100412.00
2022-08-27T08:59:31.690Z,100415.28
2022-08-27T09:01:58.742Z,100421.69
2022-08-27T09:04:29.401Z,100419.59
2022-08-27T09:07:08.543Z,100435.50
2022-08-27T09:09:37.551Z,100436.31
2022-08-27T09:12:15.731Z,100447.38
2022-08-27T09:15:05.054Z,100448.06
2022-08-27T09:17:31.797Z,100448.91
2022-08-27T09:19:58.439Z,100458.56
2022-08-27T09:22:38.384Z,100458.34
2022-08-27T09:25:20.900Z,100462.63
2022-08-27T09:27:49.536Z,100464.44
2022-08-27T09:30:32.255Z,100477.59
2022-08-27T09:33:04.529Z,100482.66
2022-08-27T09:35:46.477Z,100497.78
2022-08-27T09:38:28.409Z,100515.81
2022-08-27T09:40:59.454Z,100520.38
2022-08-27T09:43:28.440Z,100519.28
2022-08-27T09:45:58.409Z,100515.78
2022-08-27T09:48:34.065Z,100532.78
2022-08-27T09:51:12.846Z,100547.69
2022-08-27T09:53:50.479Z,100553.56
2022-08-27T09:56:28.368Z,100547.50
2022-08-27T09:59:08.245Z,100541.91
2022-08-27T10:01:48.940Z,100548.69
2022-08-27T10:04:23.699Z,100563.38
2022-08-27T10:06:51.889Z,100570.47
2022-08-27T10:09:26.744Z,100568.03
2022-08-27T10:12:17.628Z,100576.50
2022-08-27T10:14:51.285Z,100573.72
2022-08-27T10:17:29.577Z,100580.75
2022-08-27T10:20:04.092Z,100582.63
2022-08-27T10:23:12.665Z,100567.19
2022-08-27T10:26:01.087Z,100574.28
2022-08-27T10:28:39.752Z,100570.50
2022-08-27T10:31:16.324Z,100571.13
2022-08-27T10:33:55.379Z,100568.25
2022-08-27T10:36:48.978Z,100573.09
2022-08-27T10:39:33.832Z,100564.28
2022-08-27T10:42:18.665Z,100560.06
2022-08-27T10:45:07.605Z,100548.63
2022-08-27T10:47:58.292Z,100538.72
2022-08-27T10:50:45.311Z,100546.72
2022-08-27T10:53:27.168Z,100559.09
2022-08-27T10:56:14.012Z,100566.78
2022-08-27T10:59:01.412Z,100584.38
2022-08-27T11:01:33.928Z,100589.56
2022-08-27T11:04:18.545Z,100598.09
2022-08-27T11:06:57.890Z,100621.53
2022-08-27T11:09:57.271Z,100614.72
2022-08-27T11:12:33.219Z,100621.72
2022-08-27T11:15:15.884Z,100640.28
2022-08-27T11:17:51.527Z,100637.88
2022-08-27T11:20:44.163Z,100639.44
2022-08-27T11:23:16.757Z,100625.59
2022-08-27T11:26:03.922Z,100600.66
2022-08-27T11:28:42.003Z,100601.75
2022-08-27T11:31:23.983Z,100607.41
2022-08-27T11:34:12.270Z,100609.13
2022-08-27T11:37:02.678Z,100608.09
2022-08-27T11:39:52.041Z,100616.44
2022-08-27T11:42:42.026Z,100600.47
2022-08-27T11:45:28.578Z,100608.06
2022-08-27T11:48:01.169Z,100600.41
2022-08-27T11:50:30.893Z,100591.16
2022-08-27T11:53:08.471Z,100599.09
2022-08-27T11:55:39.294Z,100589.41
2022-08-27T11:58:17.982Z,100588.69
2022-08-27T12:00:46.198Z,100568.09
2022-08-27T12:03:18.818Z,100548.97
2022-08-27T12:05:54.143Z,100540.56
2022-08-27T12:08:24.252Z,100525.66
2022-08-27T12:11:19.121Z,100494.78
2022-08-27T12:14:00.920Z,100507.41
2022-08-27T12:16:36.557Z,100500.44
2022-08-27T12:19:15.250Z,100508.78
2022-08-27T12:22:00.107Z,100507.03
2022-08-27T12:24:48.723Z,100506.03
2022-08-27T12:27:24.622Z,100509.59
2022-08-27T12:30:26.948Z,100514.75
2022-08-27T12:32:54.421Z,100508.38
2022-08-27T12:35:23.425Z,100516.19
2022-08-27T12:38:14.717Z,100528.69
2022-08-27T12:41:09.245Z,100537.63
2022-08-27T12:43:43.905Z,100532.69
2022-08-27T12:46:19.290Z,100547.16
2022-08-27T12:48:57.009Z,100536.88
2022-08-27T12:51:41.886Z,100545.22
2022-08-27T12:54:08.466Z,100532.91
2022-08-27T12:56:34.973Z,100535.38
2022-08-27T12:59:17.029Z,100520.41
2022-08-27T13:02:01.966Z,100510.59
2022-08-27T13:04:33.742Z,100505.44
2022-08-27T13:07:00.344Z,100490.56
2022-08-27T13:09:38.501Z,100488.75
2022-08-27T13:12:17.764Z,100482.56
2022-08-27T13:14:52.195Z,100468.09
2022-08-27T13:17:24.023Z,100463.38
2022-08-27T13:20:00.724Z,100466.41
2022-08-27T13:22:31.816Z,100465.19
2022-08-27T13:25:02.926Z,100466.41
2022-08-27T13:27:35.962Z,100461.38
2022-08-27T13:30:11.874Z,100450.69
2022-08-27T13:32:50.595Z,100435.03
2022-08-27T13:35:20.337Z,100446.03
2022-08-27T13:37:53.492Z,100445.44
2022-08-27T13:40:32.463Z,100452.63
2022-08-27T13:43:03.713Z,100449.78
2022-08-27T13:45:31.157Z,100456.66
2022-08-27T13:47:59.673Z,100448.63
2022-08-27T13:50:31.806Z,100455.88
2022-08-27T13:53:26.477Z,100446.94
2022-08-27T13:55:54.883Z,100445.50
2022-08-27T13:58:28.508Z,100443.22
2022-08-27T14:01:07.073Z,100429.22
2022-08-27T14:03:36.786Z,100443.03
2022-08-27T14:06:03.680Z,100442.84
2022-08-27T14:08:34.486Z,100454.78
2022-08-27T14:11:08.023Z,100443.81
2022-08-27T14:13:41.445Z,100437.13
2022-08-27T14:16:24.098Z,100441.81
2022-08-27T14:19:02.508Z,100429.75
2022-08-27T14:21:29.792Z,100424.94
2022-08-27T14:23:56.736Z,100441.44
2022-08-27T14:26:23.581Z,100434.13
2022-08-27T14:28:50.953Z,100442.22
2022-08-27T14:31:18.318Z,100439.13
2022-08-27T14:33:46.611Z,100436.34
2022-08-27T14:36:13.868Z,100440.72
2022-08-27T14:38:45.568Z,100435.03
2022-08-27T14:41:12.306Z,100450.94
2022-08-27T14:43:40.457Z,100444.69
2022-08-27T14:46:11.477Z,100443.00
2022-08-27T14:48:43.330Z,100454.94
2022-08-27T14:51:24.588Z,100451.44
2022-08-27T14:53:51.670Z,100444.88
2022-08-27T14:56:19.625Z,100463.44
2022-08-27T14:58:46.742Z,100458.84
2022-08-27T15:01:14.627Z,100464.00
2022-08-27T15:03:49.801Z,100469.03
2022-08-27T15:06:18.255Z,100465.63
2022-08-27T15:08:45.605Z,100456.03
2022-08-27T15:11:23.387Z,100472.38
2022-08-27T15:13:51.561Z,100472.19
2022-08-27T15:16:30.078Z,100464.72
2022-08-27T15:19:00.671Z,100468.03
2022-08-27T15:21:30.435Z,100469.28
2022-08-27T15:24:00.723Z,100459.44
2022-08-27T15:26:27.376Z,100458.44
2022-08-27T15:28:55.133Z,100449.59
2022-08-27T15:31:21.923Z,100459.50
2022-08-27T15:33:48.541Z,100459.81
2022-08-27T15:36:15.208Z,100447.44
2022-08-27T15:38:41.887Z,100460.59
2022-08-27T15:41:10.329Z,100452.94
2022-08-27T15:43:38.054Z,100445.28
2022-08-27T15:46:05.420Z,100431.66
2022-08-27T15:48:32.279Z,100432.56
2022-08-27T15:51:07.531Z,100426.81
2022-08-27T15:53:34.572Z,100422.25
2022-08-27T15:56:03.916Z,100414.22
2022-08-27T15:58:31.134Z,100411.72
2022-08-27T16:01:09.190Z,100405.97
2022-08-27T16:03:36.139Z,100413.47
2022-08-27T16:06:03.861Z,100405.47
2022-08-27T16:08:36.725Z,100415.75
2022-08-27T16:11:08.366Z,100413.16
2022-08-27T16:13:34.980Z,100416.81
2022-08-27T16:16:02.434Z,100428.31
2022-08-27T16:18:31.669Z,100430.56
2022-08-27T16:21:00.148Z,100433.81
2022-08-27T16:23:27.851Z,100427.50
2022-08-27T16:25:55.958Z,100436.41
2022-08-27T16:28:23.876Z,100442.50
2022-08-27T16:30:52.331Z,100445.94
2022-08-27T16:33:19.245Z,100453.50
2022-08-27T16:35:46.403Z,100457.78
2022-08-27T16:38:13.131Z,100463.88
2022-08-27T16:40:48.220Z,100465.03
2022-08-27T16:43:20.413Z,100455.69
2022-08-27T16:45:49.034Z,100459.28
2022-08-27T16:48:34.941Z,100476.63
2022-08-27T16:51:03.210Z,100475.47
2022-08-27T16:53:34.559Z,100471.56
2022-08-27T16:56:01.760Z,100478.56
2022-08-27T16:58:30.215Z,100478.41
2022-08-27T17:01:02.701Z,100483.97
2022-08-27T17:03:30.586Z,100487.88
2022-08-27T17:05:57.769Z,100487.34
2022-08-27T17:08:27.321Z,100493.06
2022-08-27T17:10:55.452Z,100505.59
2022-08-27T17:18:42.191Z,100501.38
2022-08-27T17:21:08.744Z,100501.06
2022-08-27T17:23:39.398Z,100502.06
2022-08-27T17:26:09.208Z,100503.19
2022-08-27T17:28:39.267Z,100508.69
2022-08-27T17:31:07.548Z,100507.91
2022-08-27T17:33:42.894Z,100511.78
2022-08-27T17:36:10.378Z,100513.91
2022-08-27T17:38:38.866Z,100515.47
2022-08-27T17:41:16.233Z,100517.91
2022-08-27T17:43:42.908Z,100513.94
2022-08-27T17:46:09.745Z,100518.03
2022-08-27T17:48:36.362Z,100514.53
2022-08-27T17:51:04.038Z,100505.25
2022-08-27T17:53:30.622Z,100519.44
2022-08-27T17:55:57.157Z,100517.78
2022-08-27T17:58:23.684Z,100522.78
2022-08-27T18:00:51.262Z,100520.28
2022-08-27T18:03:20.044Z,100515.34
2022-08-27T18:05:48.027Z,100513.31
2022-08-27T18:08:15.276Z,100518.56
2022-08-27T18:10:43.483Z,100514.38
2022-08-27T18:13:13.723Z,100509.13
2022-08-27T18:15:42.138Z,100504.19
2022-08-27T18:18:09.956Z,100508.16
2022-08-27T18:20:37.480Z,100523.28
2022-08-27T18:23:09.551Z,100510.63
2022-08-27T18:25:38.578Z,100514.09
2022-08-27T18:28:11.300Z,100512.31
2022-08-27T18:30:43.360Z,100506.16
2022-08-27T18:33:10.846Z,100514.50
2022-08-27T18:35:37.974Z,100510.78
2022-08-27T18:38:06.176Z,100513.03
2022-08-27T18:40:38.667Z,100514.09
2022-08-27T18:43:05.764Z,100513.72
2022-08-27T18:45:34.594Z,100514.00
2022-08-27T18:48:02.666Z,100520.44
2022-08-27T18:50:29.247Z,100522.16
2022-08-27T18:52:56.893Z,100516.91
2022-08-27T18:55:27.982Z,100511.75
2022-08-27T18:57:54.571Z,100521.75
2022-08-27T19:00:21.533Z,100524.56
2022-08-27T19:02:52.673Z,100512.38
2022-08-27T19:05:24.242Z,100527.59
2022-08-27T19:07:50.827Z,100528.69
2022-08-27T19:10:18.276Z,100531.88
2022-08-27T19:12:44.896Z,100525.16
2022-08-27T19:15:12.224Z,100519.56
2022-08-27T19:17:41.608Z,100529.28
2022-08-27T19:20:08.394Z,100532.91
2022-08-27T19:22:35.017Z,100541.84
2022-08-27T19:25:02.150Z,100546.72
2022-08-27T19:27:30.313Z,100547.34
2022-08-27T19:29:57.062Z,100545.50
2022-08-27T19:32:23.810Z,100545.19
2022-08-27T19:34:50.374Z,100557.66
2022-08-27T19:37:21.138Z,100559.31
2022-08-27T19:39:47.703Z,100550.94
2022-08-27T19:42:14.502Z,100557.69
2022-08-27T19:44:41.258Z,100559.09
2022-08-27T19:47:10.053Z,100562.25
2022-08-27T19:49:37.103Z,100555.59
2022-08-27T19:52:08.103Z,100564.38
2022-08-27T19:54:43.128Z,100571.38
2022-08-27T19:57:18.671Z,100580.66
2022-08-27T19:59:45.407Z,100582.34
2022-08-27T20:02:12.550Z,100574.38
2022-08-27T20:04:56.050Z,100582.16
2022-08-27T20:07:28.194Z,100578.56
2022-08-27T20:09:54.753Z,100568.75
2022-08-27T20:12:21.771Z,100578.19
2022-08-27T20:14:48.339Z,100579.88
2022-08-27T20:17:18.266Z,100571.28
2022-08-27T20:19:45.373Z,100593.38
2022-08-27T20:22:13.155Z,100584.13
2022-08-27T20:24:39.753Z,100577.03
2022-08-27T20:27:06.355Z,100577.25
2022-08-27T20:29:33.533Z,100585.22
2022-08-27T20:32:01.230Z,100584.22
2022-08-27T20:34:29.561Z,100582.59
2022-08-27T20:36:56.222Z,100560.84
2022-08-27T20:39:22.889Z,100581.38
2022-08-27T20:41:50.132Z,100576.56
2022-08-27T20:44:17.028Z,100580.59
2022-08-27T20:46:43.791Z,100580.59
2022-08-27T20:49:15.642Z,100583.53
2022-08-27T20:51:51.330Z,100584.00
2022-08-27T20:54:28.759Z,100585.88
2022-08-27T20:56:55.295Z,100578.31
2022-08-27T20:59:40.737Z,100586.50
2022-08-27T21:02:12.310Z,100579.38
2022-08-27T21:04:42.312Z,100579.75
2022-08-27T21:07:09.057Z,100578.06
2022-08-27T21:09:35.684Z,100576.81
2022-08-27T21:12:11.477Z,100583.75
2022-08-27T21:14:38.181Z,100583.13
2022-08-27T21:17:05.916Z,100593.66
2022-08-27T21:19:35.163Z,100588.81
2022-08-27T21:22:06.054Z,100592.81
2022-08-27T21:24:33.855Z,100591.13
2022-08-27T21:27:00.424Z,100604.97
2022-08-27T21:29:27.052Z,100595.09
2022-08-27T21:31:53.942Z,100593.41
2022-08-27T21:34:20.681Z,100605.81
2022-08-27T21:36:47.250Z,100601.59
2022-08-27T21:39:13.836Z,100603.25
2022-08-27T21:41:40.786Z,100599.03
2022-08-27T21:44:07.367Z,100605.09
2022-08-27T21:46:34.044Z,100602.38
2022-08-27T21:49:00.649Z,100611.66
2022-08-27T21:51:27.558Z,100612.88
2022-08-27T21:53:54.175Z,100608.66
2022-08-27T21:56:20.790Z,100609.28
2022-08-27T21:58:47.402Z,100620.84
2022-08-27T22:01:14.939Z,100610.53
2022-08-27T22:03:45.278Z,100617.00
2022-08-27T22:06:14.924Z,100617.41
2022-08-27T22:08:42.480Z,100623.50
2022-08-27T22:11:09.517Z,100623.72
2022-08-27T22:13:36.404Z,100621.63
2022-08-27T22:16:03.765Z,100624.63
2022-08-27T22:18:30.906Z,100625.50
2022-08-27T22:20:58.864Z,100616.66
2022-08-27T22:23:25.962Z,100615.03
2022-08-27T22:25:52.569Z,100633.09
2022-08-27T22:28:19.414Z,100637.94
2022-08-27T22:30:46.008Z,100630.59
2022-08-27T22:33:13.412Z,100626.97
2022-08-27T22:35:40.216Z,100625.06
2022-08-27T22:38:07.239Z,100625.25
2022-08-27T22:40:35.458Z,100623.13
2022-08-27T22:43:02.576Z,100622.09
2022-08-27T22:45:29.298Z,100624.13
2022-08-27T22:47:55.862Z,100623.72
2022-08-27T22:50:23.064Z,100622.88
2022-08-27T22:52:49.909Z,100618.00
2022-08-27T22:55:19.761Z,100622.44
2022-08-27T22:57:51.461Z,100616.97
2022-08-27T23:00:23.468Z,100612.78
2022-08-27T23:02:50.073Z,100610.47
2022-08-27T23:05:17.041Z,100612.78
2022-08-27T23:07:44.815Z,100606.47
2022-08-27T23:10:13.722Z,100614.25
2022-08-27T23:12:40.332Z,100613.19
2022-08-27T23:15:12.497Z,100609.41
2022-08-27T23:17:39.035Z,100609.81
2022-08-27T23:20:08.203Z,100605.63
2022-08-27T23:22:35.629Z,100606.03
2022-08-27T23:25:37.559Z,100602.44
2022-08-27T23:28:10.221Z,100601.38
2022-08-27T23:30:38.968Z,100600.53
2022-08-27T23:33:05.594Z,100605.56
2022-08-27T23:35:32.443Z,100603.47
2022-08-27T23:37:59.177Z,100603.88
2022-08-27T23:40:26.024Z,100605.56
2022-08-27T23:42:53.103Z,100600.94
2022-08-27T23:45:23.807Z,100597.75
2022-08-27T23:47:50.543Z,100609.31
2022-08-27T23:50:17.192Z,100603.84
2022-08-27T23:52:43.949Z,100610.16
2022-08-27T23:55:11.792Z,100611.81
2022-08-27T23:57:38.479Z,100616.06
